sensor_id;sensor_type;location;lat;lon;timestamp;pressure;altitude;pressure_sealevel;temperature
69704;BMP280;56967;43.538;-5.646;2023-02-28T00:00:51;102311.53;;;9.51
69704;BMP280;56967;43.538;-5.646;2023-02-28T00:03:17;102311.97;;;9.14
69704;BMP280;56967;43.538;-5.646;2023-02-28T00:05:43;102304.66;;;8.83
69704;BMP280;56967;43.538;-5.646;2023-02-28T00:08:09;102297.44;;;8.77
69704;BMP280;56967;43.538;-5.646;2023-02-28T00:10:34;102291.25;;;8.95
69704;BMP280;56967;43.538;-5.646;2023-02-28T00:13:04;102278.34;;;9.09
69704;BMP280;56967;43.538;-5.646;2023-02-28T00:15:30;102276.06;;;9.14
69704;BMP280;56967;43.538;-5.646;2023-02-28T00:17:56;102284.41;;;9.02
69704;BMP280;56967;43.538;-5.646;2023-02-28T00:20:22;102283.44;;;9.11
69704;BMP280;56967;43.538;-5.646;2023-02-28T00:22:51;102276.75;;;9.32
69704;BMP280;56967;43.538;-5.646;2023-02-28T00:25:20;102279.88;;;9.60
69704;BMP280;56967;43.538;-5.646;2023-02-28T00:27:46;102278.03;;;9.77
69704;BMP280;56967;43.538;-5.646;2023-02-28T00:30:20;102286.56;;;9.71
69704;BMP280;56967;43.538;-5.646;2023-02-28T00:32:46;102285.91;;;9.85
69704;BMP280;56967;43.538;-5.646;2023-02-28T00:35:12;102282.59;;;9.91
69704;BMP280;56967;43.538;-5.646;2023-02-28T00:37:38;102276.19;;;9.93
69704;BMP280;56967;43.538;-5.646;2023-02-28T00:40:04;102283.28;;;9.85
69704;BMP280;56967;43.538;-5.646;2023-02-28T00:42:31;102292.97;;;9.68
69704;BMP280;56967;43.538;-5.646;2023-02-28T00:44:57;102283.28;;;9.85
69704;BMP280;56967;43.538;-5.646;2023-02-28T00:47:22;102290.34;;;9.92
69704;BMP280;56967;43.538;-5.646;2023-02-28T00:49:48;102287.19;;;10.05
69704;BMP280;56967;43.538;-5.646;2023-02-28T00:52:13;102291.44;;;9.98
69704;BMP280;56967;43.538;-5.646;2023-02-28T00:54:39;102286.84;;;10.00
69704;BMP280;56967;43.538;-5.646;2023-02-28T00:57:04;102282.91;;;10.04
69704;BMP280;56967;43.538;-5.646;2023-02-28T00:59:30;102288.19;;;9.96
69704;BMP280;56967;43.538;-5.646;2023-02-28T01:01:56;102287.41;;;9.87
69704;BMP280;56967;43.538;-5.646;2023-02-28T01:04:21;102283.91;;;9.95
69704;BMP280;56967;43.538;-5.646;2023-02-28T01:06:47;102277.28;;;10.07
69704;BMP280;56967;43.538;-5.646;2023-02-28T01:09:13;102290.13;;;10.10
69704;BMP280;56967;43.538;-5.646;2023-02-28T01:11:38;102279.59;;;10.18
69704;BMP280;56967;43.538;-5.646;2023-02-28T01:14:05;102280.44;;;10.11
69704;BMP280;56967;43.538;-5.646;2023-02-28T01:16:31;102272.72;;;10.09
69704;BMP280;56967;43.538;-5.646;2023-02-28T01:18:57;102267.44;;;10.17
69704;BMP280;56967;43.538;-5.646;2023-02-28T01:21:23;102279.78;;;10.09
69704;BMP280;56967;43.538;-5.646;2023-02-28T01:23:49;102277.50;;;9.98
69704;BMP280;56967;43.538;-5.646;2023-02-28T01:26:21;102279.50;;;9.96
69704;BMP280;56967;43.538;-5.646;2023-02-28T01:28:48;102279.50;;;9.96
69704;BMP280;56967;43.538;-5.646;2023-02-28T01:31:17;102287.41;;;9.87
69704;BMP280;56967;43.538;-5.646;2023-02-28T01:33:43;102286.06;;;9.91
69704;BMP280;56967;43.538;-5.646;2023-02-28T01:36:15;102281.94;;;9.97
69704;BMP280;56967;43.538;-5.646;2023-02-28T01:38:41;102297.53;;;9.90
69704;BMP280;56967;43.538;-5.646;2023-02-28T01:41:07;102290.31;;;9.84
69704;BMP280;56967;43.538;-5.646;2023-02-28T01:46:20;102289.66;;;9.90
69704;BMP280;56967;43.538;-5.646;2023-02-28T01:54:07;102287.41;;;9.87
69704;BMP280;56967;43.538;-5.646;2023-02-28T01:56:43;102286.59;;;9.79
69704;BMP280;56967;43.538;-5.646;2023-02-28T01:59:10;102296.59;;;9.67
69704;BMP280;56967;43.538;-5.646;2023-02-28T02:01:37;102302.16;;;9.88
69704;BMP280;56967;43.538;-5.646;2023-02-28T02:04:03;102298.03;;;9.86
69704;BMP280;56967;43.538;-5.646;2023-02-28T02:08:58;102302.94;;;9.89
69704;BMP280;56967;43.538;-5.646;2023-02-28T02:11:24;102298.50;;;9.89
69704;BMP280;56967;43.538;-5.646;2023-02-28T02:14:01;102290.81;;;9.80
69704;BMP280;56967;43.538;-5.646;2023-02-28T02:16:53;102290.03;;;9.79
69704;BMP280;56967;43.538;-5.646;2023-02-28T02:19:40;102284.28;;;9.84
69704;BMP280;56967;43.538;-5.646;2023-02-28T02:31:06;102296.56;;;9.91
69704;BMP280;56967;43.538;-5.646;2023-02-28T02:33:43;102295.06;;;9.97
69704;BMP280;56967;43.538;-5.646;2023-02-28T02:36:37;102296.88;;;9.80
69704;BMP280;56967;43.538;-5.646;2023-02-28T02:42:11;102290.50;;;9.83
69704;BMP280;56967;43.538;-5.646;2023-02-28T02:44:43;102290.16;;;9.86
69704;BMP280;56967;43.538;-5.646;2023-02-28T02:47:15;102293.78;;;9.85
69704;BMP280;56967;43.538;-5.646;2023-02-28T02:49:47;102296.06;;;9.80
69704;BMP280;56967;43.538;-5.646;2023-02-28T02:52:17;102290.81;;;9.88
69704;BMP280;56967;43.538;-5.646;2023-02-28T02:54:45;102287.19;;;9.81
69704;BMP280;56967;43.538;-5.646;2023-02-28T02:57:35;102282.97;;;9.64
69704;BMP280;56967;43.538;-5.646;2023-02-28T03:00:04;102282.47;;;9.68
69704;BMP280;56967;43.538;-5.646;2023-02-28T03:02:35;102290.34;;;9.76
69704;BMP280;56967;43.538;-5.646;2023-02-28T03:05:08;102291.81;;;9.87
69704;BMP280;56967;43.538;-5.646;2023-02-28T03:07:38;102283.78;;;9.72
69704;BMP280;56967;43.538;-5.646;2023-02-28T03:13:28;102285.38;;;9.89
69704;BMP280;56967;43.538;-5.646;2023-02-28T03:16:29;102284.75;;;9.96
69704;BMP280;56967;43.538;-5.646;2023-02-28T03:22:09;102280.00;;;9.83
69704;BMP280;56967;43.538;-5.646;2023-02-28T03:24:58;102282.28;;;9.86
69704;BMP280;56967;43.538;-5.646;2023-02-28T03:27:31;102287.41;;;9.87
69704;BMP280;56967;43.538;-5.646;2023-02-28T03:30:04;102277.91;;;9.70
69704;BMP280;56967;43.538;-5.646;2023-02-28T03:35:20;102282.13;;;9.71
69704;BMP280;56967;43.538;-5.646;2023-02-28T03:37:49;102285.09;;;9.68
69704;BMP280;56967;43.538;-5.646;2023-02-28T03:40:20;102286.91;;;9.68
69704;BMP280;56967;43.538;-5.646;2023-02-28T03:42:50;102290.66;;;9.73
69704;BMP280;56967;43.538;-5.646;2023-02-28T03:45:20;102297.06;;;9.71
69704;BMP280;56967;43.538;-5.646;2023-02-28T03:47:54;102290.53;;;9.75
69704;BMP280;56967;43.538;-5.646;2023-02-28T03:50:29;102303.66;;;9.75
69704;BMP280;56967;43.538;-5.646;2023-02-28T03:53:00;102294.78;;;9.68
69704;BMP280;56967;43.538;-5.646;2023-02-28T03:55:34;102297.06;;;9.63
69704;BMP280;56967;43.538;-5.646;2023-02-28T03:58:27;102297.75;;;9.65
69704;BMP280;56967;43.538;-5.646;2023-02-28T04:01:03;102293.63;;;9.54
69704;BMP280;56967;43.538;-5.646;2023-02-28T04:03:34;102296.44;;;9.61
69704;BMP280;56967;43.538;-5.646;2023-02-28T04:06:00;102290.00;;;9.71
69704;BMP280;56967;43.538;-5.646;2023-02-28T04:08:26;102289.84;;;9.65
69704;BMP280;56967;43.538;-5.646;2023-02-28T04:11:06;102298.09;;;9.70
69704;BMP280;56967;43.538;-5.646;2023-02-28T04:13:32;102293.97;;;9.67
69704;BMP280;56967;43.538;-5.646;2023-02-28T04:15:57;102295.91;;;9.81
69704;BMP280;56967;43.538;-5.646;2023-02-28T04:18:23;102296.41;;;9.85
69704;BMP280;56967;43.538;-5.646;2023-02-28T04:20:48;102303.44;;;9.84
69704;BMP280;56967;43.538;-5.646;2023-02-28T04:23:14;102293.78;;;9.85
69704;BMP280;56967;43.538;-5.646;2023-02-28T04:25:39;102297.38;;;9.92
69704;BMP280;56967;43.538;-5.646;2023-02-28T04:28:06;102301.66;;;9.77
69704;BMP280;56967;43.538;-5.646;2023-02-28T04:30:32;102299.34;;;9.82
69704;BMP280;56967;43.538;-5.646;2023-02-28T04:32:58;102302.63;;;9.92
69704;BMP280;56967;43.538;-5.646;2023-02-28T04:35:23;102299.84;;;10.02
69704;BMP280;56967;43.538;-5.646;2023-02-28T04:37:49;102307.41;;;9.88
69704;BMP280;56967;43.538;-5.646;2023-02-28T04:40:15;102305.91;;;9.94
69704;BMP280;56967;43.538;-5.646;2023-02-28T04:42:40;102313.97;;;9.92
69704;BMP280;56967;43.538;-5.646;2023-02-28T04:45:06;102310.19;;;9.95
69704;BMP280;56967;43.538;-5.646;2023-02-28T04:47:35;102314.94;;;9.91
69704;BMP280;56967;43.538;-5.646;2023-02-28T04:50:01;102314.63;;;9.94
69704;BMP280;56967;43.538;-5.646;2023-02-28T04:52:27;102313.97;;;9.92
69704;BMP280;56967;43.538;-5.646;2023-02-28T04:54:53;102321.03;;;9.84
69704;BMP280;56967;43.538;-5.646;2023-02-28T04:57:18;102317.59;;;9.83
69704;BMP280;56967;43.538;-5.646;2023-02-28T04:59:44;102314.78;;;9.85
69704;BMP280;56967;43.538;-5.646;2023-02-28T05:02:09;102325.44;;;9.91
69704;BMP280;56967;43.538;-5.646;2023-02-28T05:04:35;102322.16;;;9.98
69704;BMP280;56967;43.538;-5.646;2023-02-28T05:07:02;102330.38;;;9.94
69704;BMP280;56967;43.538;-5.646;2023-02-28T05:09:28;102328.09;;;9.83
69704;BMP280;56967;43.538;-5.646;2023-02-28T05:11:54;102327.59;;;9.88
69704;BMP280;56967;43.538;-5.646;2023-02-28T05:14:19;102333.50;;;9.74
69704;BMP280;56967;43.538;-5.646;2023-02-28T05:16:45;102331.53;;;9.76
69704;BMP280;56967;43.538;-5.646;2023-02-28T05:19:11;102331.69;;;9.90
69704;BMP280;56967;43.538;-5.646;2023-02-28T05:21:39;102334.16;;;9.92
69704;BMP280;56967;43.538;-5.646;2023-02-28T05:24:11;102341.72;;;9.71
69704;BMP280;56967;43.538;-5.646;2023-02-28T05:26:39;102344.00;;;9.74
69704;BMP280;56967;43.538;-5.646;2023-02-28T05:29:06;102349.41;;;9.80
69704;BMP280;56967;43.538;-5.646;2023-02-28T05:31:32;102353.06;;;9.79
69704;BMP280;56967;43.538;-5.646;2023-02-28T05:33:57;102352.84;;;9.81
69704;BMP280;56967;43.538;-5.646;2023-02-28T05:36:23;102355.81;;;9.86
69704;BMP280;56967;43.538;-5.646;2023-02-28T05:38:49;102351.72;;;9.83
69704;BMP280;56967;43.538;-5.646;2023-02-28T05:41:16;102357.63;;;9.85
69704;BMP280;56967;43.538;-5.646;2023-02-28T05:43:42;102352.38;;;9.85
69704;BMP280;56967;43.538;-5.646;2023-02-28T05:46:09;102357.63;;;9.85
69704;BMP280;56967;43.538;-5.646;2023-02-28T05:48:37;102361.72;;;9.88
69704;BMP280;56967;43.538;-5.646;2023-02-28T05:51:04;102357.28;;;9.80
69704;BMP280;56967;43.538;-5.646;2023-02-28T05:53:30;102360.88;;;9.71
69704;BMP280;56967;43.538;-5.646;2023-02-28T05:55:56;102369.78;;;9.78
69704;BMP280;56967;43.538;-5.646;2023-02-28T05:58:22;102366.97;;;9.72
69704;BMP280;56967;43.538;-5.646;2023-02-28T06:00:48;102361.09;;;9.70
69704;BMP280;56967;43.538;-5.646;2023-02-28T06:03:13;102367.31;;;9.69
69704;BMP280;56967;43.538;-5.646;2023-02-28T06:05:39;102366.66;;;9.83
69704;BMP280;56967;43.538;-5.646;2023-02-28T06:08:05;102363.84;;;9.84
69704;BMP280;56967;43.538;-5.646;2023-02-28T06:10:33;102371.22;;;9.89
69704;BMP280;56967;43.538;-5.646;2023-02-28T06:13:03;102366.31;;;9.94
69704;BMP280;56967;43.538;-5.646;2023-02-28T06:15:29;102364.03;;;9.83
69704;BMP280;56967;43.538;-5.646;2023-02-28T06:17:56;102370.25;;;9.90
69704;BMP280;56967;43.538;-5.646;2023-02-28T06:20:22;102364.19;;;9.98
69704;BMP280;56967;43.538;-5.646;2023-02-28T06:22:48;102365.66;;;10.00
69704;BMP280;56967;43.538;-5.646;2023-02-28T06:25:15;102362.56;;;10.05
69704;BMP280;56967;43.538;-5.646;2023-02-28T06:27:41;102364.34;;;10.04
69704;BMP280;56967;43.538;-5.646;2023-02-28T06:30:07;102364.34;;;10.04
69704;BMP280;56967;43.538;-5.646;2023-02-28T06:32:32;102369.94;;;10.01
69704;BMP280;56967;43.538;-5.646;2023-02-28T06:34:58;102376.19;;;9.92
69704;BMP280;56967;43.538;-5.646;2023-02-28T06:37:24;102374.06;;;9.87
69704;BMP280;56967;43.538;-5.646;2023-02-28T06:39:54;102373.72;;;10.07
69704;BMP280;56967;43.538;-5.646;2023-02-28T06:42:22;102375.84;;;10.03
69704;BMP280;56967;43.538;-5.646;2023-02-28T06:44:50;102385.03;;;9.99
69704;BMP280;56967;43.538;-5.646;2023-02-28T06:47:16;102381.41;;;10.00
69704;BMP280;56967;43.538;-5.646;2023-02-28T06:49:42;102375.50;;;9.82
69704;BMP280;56967;43.538;-5.646;2023-02-28T06:52:07;102383.75;;;9.79
69704;BMP280;56967;43.538;-5.646;2023-02-28T06:54:36;102382.72;;;9.88
69704;BMP280;56967;43.538;-5.646;2023-02-28T06:57:02;102385.53;;;9.86
69704;BMP280;56967;43.538;-5.646;2023-02-28T06:59:27;102387.81;;;9.89
69704;BMP280;56967;43.538;-5.646;2023-02-28T07:01:53;102385.84;;;9.75
69704;BMP280;56967;43.538;-5.646;2023-02-28T07:04:20;102389.44;;;9.99
69704;BMP280;56967;43.538;-5.646;2023-02-28T07:06:46;102392.75;;;10.01
69704;BMP280;56967;43.538;-5.646;2023-02-28T07:09:11;102387.19;;;9.79
69704;BMP280;56967;43.538;-5.646;2023-02-28T07:11:37;102391.78;;;9.85
69704;BMP280;56967;43.538;-5.646;2023-02-28T07:14:03;102391.41;;;9.80
69704;BMP280;56967;43.538;-5.646;2023-02-28T07:16:28;102399.66;;;9.85
69704;BMP280;56967;43.538;-5.646;2023-02-28T07:18:54;102405.72;;;9.86
69704;BMP280;56967;43.538;-5.646;2023-02-28T07:21:20;102406.41;;;9.96
69704;BMP280;56967;43.538;-5.646;2023-02-28T07:23:45;102407.03;;;10.06
69704;BMP280;56967;43.538;-5.646;2023-02-28T07:26:14;102410.31;;;10.08
69704;BMP280;56967;43.538;-5.646;2023-02-28T07:28:44;102407.84;;;10.23
69704;BMP280;56967;43.538;-5.646;2023-02-28T07:31:10;102411.66;;;10.20
69704;BMP280;56967;43.538;-5.646;2023-02-28T07:33:36;102407.00;;;10.22
69704;BMP280;56967;43.538;-5.646;2023-02-28T07:36:08;102406.84;;;10.32
69704;BMP280;56967;43.538;-5.646;2023-02-28T07:38:35;102418.34;;;10.23
69704;BMP280;56967;43.538;-5.646;2023-02-28T07:41:01;102421.47;;;9.86
69704;BMP280;56967;43.538;-5.646;2023-02-28T07:43:30;102420.66;;;9.77
69704;BMP280;56967;43.538;-5.646;2023-02-28T07:45:55;102410.31;;;9.92
69704;BMP280;56967;43.538;-5.646;2023-02-28T07:48:21;102417.72;;;10.05
69704;BMP280;56967;43.538;-5.646;2023-02-28T07:50:54;102432.81;;;10.03
69704;BMP280;56967;43.538;-5.646;2023-02-28T07:53:20;102432.00;;;10.10
69704;BMP280;56967;43.538;-5.646;2023-02-28T07:55:46;102428.06;;;10.06
69704;BMP280;56967;43.538;-5.646;2023-02-28T07:58:11;102429.00;;;9.81
69704;BMP280;56967;43.538;-5.646;2023-02-28T08:00:37;102439.19;;;10.16
69704;BMP280;56967;43.538;-5.646;2023-02-28T08:03:03;102449.72;;;10.32
69704;BMP280;56967;43.538;-5.646;2023-02-28T08:05:29;102457.75;;;10.23
69704;BMP280;56967;43.538;-5.646;2023-02-28T08:07:55;102454.28;;;9.90
69704;BMP280;56967;43.538;-5.646;2023-02-28T08:10:21;102460.31;;;9.50
69704;BMP280;56967;43.538;-5.646;2023-02-28T08:12:46;102455.22;;;9.57
69704;BMP280;56967;43.538;-5.646;2023-02-28T08:15:12;102463.19;;;9.97
69704;BMP280;56967;43.538;-5.646;2023-02-28T08:17:37;102464.50;;;10.17
69704;BMP280;56967;43.538;-5.646;2023-02-28T08:20:03;102465.63;;;10.47
69704;BMP280;56967;43.538;-5.646;2023-02-28T08:22:29;102463.19;;;10.45
69704;BMP280;56967;43.538;-5.646;2023-02-28T08:24:55;102461.44;;;10.85
69704;BMP280;56967;43.538;-5.646;2023-02-28T08:27:20;102465.78;;;11.17
69704;BMP280;56967;43.538;-5.646;2023-02-28T08:29:46;102454.44;;;11.47
69704;BMP280;56967;43.538;-5.646;2023-02-28T08:32:11;102465.34;;;11.89
69704;BMP280;56967;43.538;-5.646;2023-02-28T08:34:39;102459.50;;;12.31
69704;BMP280;56967;43.538;-5.646;2023-02-28T08:37:04;102474.72;;;12.44
69704;BMP280;56967;43.538;-5.646;2023-02-28T08:39:30;102477.28;;;12.66
69704;BMP280;56967;43.538;-5.646;2023-02-28T08:41:55;102475.56;;;12.73
69704;BMP280;56967;43.538;-5.646;2023-02-28T08:44:21;102490.81;;;12.49
69704;BMP280;56967;43.538;-5.646;2023-02-28T08:46:46;102501.84;;;12.15
69704;BMP280;56967;43.538;-5.646;2023-02-28T08:49:12;102506.78;;;11.95
69704;BMP280;56967;43.538;-5.646;2023-02-28T08:51:38;102502.59;;;12.01
69704;BMP280;56967;43.538;-5.646;2023-02-28T08:54:03;102513.84;;;12.17
69704;BMP280;56967;43.538;-5.646;2023-02-28T08:56:29;102507.31;;;11.91
69704;BMP280;56967;43.538;-5.646;2023-02-28T08:58:56;102519.34;;;11.32
69704;BMP280;56967;43.538;-5.646;2023-02-28T09:01:25;102496.56;;;11.47
69704;BMP280;56967;43.538;-5.646;2023-02-28T09:03:52;102523.09;;;11.37
69704;BMP280;56967;43.538;-5.646;2023-02-28T09:06:20;102517.53;;;11.63
69704;BMP280;56967;43.538;-5.646;2023-02-28T09:08:46;102538.22;;;11.43
69704;BMP280;56967;43.538;-5.646;2023-02-28T09:11:12;102540.41;;;11.62
69704;BMP280;56967;43.538;-5.646;2023-02-28T09:13:38;102538.22;;;11.43
69704;BMP280;56967;43.538;-5.646;2023-02-28T09:16:05;102532.00;;;11.28
69704;BMP280;56967;43.538;-5.646;2023-02-28T09:18:34;102527.13;;;11.17
69704;BMP280;56967;43.538;-5.646;2023-02-28T09:21:03;102530.66;;;10.93
69704;BMP280;56967;43.538;-5.646;2023-02-28T09:23:28;102530.47;;;10.95
69704;BMP280;56967;43.538;-5.646;2023-02-28T09:25:54;102544.94;;;10.99
69704;BMP280;56967;43.538;-5.646;2023-02-28T09:28:20;102530.63;;;11.01
69704;BMP280;56967;43.538;-5.646;2023-02-28T09:30:51;102534.09;;;10.94
69704;BMP280;56967;43.538;-5.646;2023-02-28T09:33:18;102533.78;;;10.89
69704;BMP280;56967;43.538;-5.646;2023-02-28T09:35:46;102534.78;;;10.80
69704;BMP280;56967;43.538;-5.646;2023-02-28T09:38:12;102536.28;;;10.66
69704;BMP280;56967;43.538;-5.646;2023-02-28T09:41:00;102535.41;;;10.90
69704;BMP280;56967;43.538;-5.646;2023-02-28T09:43:30;102528.19;;;10.92
69704;BMP280;56967;43.538;-5.646;2023-02-28T09:46:02;102541.69;;;10.89
69704;BMP280;56967;43.538;-5.646;2023-02-28T09:48:37;102558.91;;;10.99
69704;BMP280;56967;43.538;-5.646;2023-02-28T09:51:12;102549.50;;;11.13
69704;BMP280;56967;43.538;-5.646;2023-02-28T09:53:40;102568.44;;;11.17
69704;BMP280;56967;43.538;-5.646;2023-02-28T09:56:13;102562.78;;;11.28
69704;BMP280;56967;43.538;-5.646;2023-02-28T09:58:47;102555.38;;;11.39
69704;BMP280;56967;43.538;-5.646;2023-02-28T10:01:31;102560.59;;;11.47
69704;BMP280;56967;43.538;-5.646;2023-02-28T10:04:10;102567.59;;;11.63
69704;BMP280;56967;43.538;-5.646;2023-02-28T10:06:49;102586.44;;;11.36
69704;BMP280;56967;43.538;-5.646;2023-02-28T10:09:22;102558.09;;;11.46
69704;BMP280;56967;43.538;-5.646;2023-02-28T10:11:51;102565.97;;;11.54
69704;BMP280;56967;43.538;-5.646;2023-02-28T10:14:19;102566.31;;;11.82
69704;BMP280;56967;43.538;-5.646;2023-02-28T10:16:50;102565.56;;;11.96
69704;BMP280;56967;43.538;-5.646;2023-02-28T10:21:59;102576.38;;;11.78
69704;BMP280;56967;43.538;-5.646;2023-02-28T10:24:33;102570.06;;;11.87
69704;BMP280;56967;43.538;-5.646;2023-02-28T10:27:12;102561.34;;;11.87
69704;BMP280;56967;43.538;-5.646;2023-02-28T10:29:40;102574.59;;;12.01
69704;BMP280;56967;43.538;-5.646;2023-02-28T10:32:11;102574.13;;;12.20
69704;BMP280;56967;43.538;-5.646;2023-02-28T10:34:38;102581.47;;;12.70
69704;BMP280;56967;43.538;-5.646;2023-02-28T10:37:04;102603.25;;;13.81
69704;BMP280;56967;43.538;-5.646;2023-02-28T10:39:41;102603.41;;;13.94
69704;BMP280;56967;43.538;-5.646;2023-02-28T10:42:25;102576.72;;;12.95
69704;BMP280;56967;43.538;-5.646;2023-02-28T10:45:15;102578.63;;;12.57
69704;BMP280;56967;43.538;-5.646;2023-02-28T10:48:02;102563.06;;;12.25
69704;BMP280;56967;43.538;-5.646;2023-02-28T10:53:33;102569.38;;;11.93
69704;BMP280;56967;43.538;-5.646;2023-02-28T10:56:04;102570.59;;;11.83
69704;BMP280;56967;43.538;-5.646;2023-02-28T11:01:19;102583.56;;;12.15
69704;BMP280;56967;43.538;-5.646;2023-02-28T11:03:45;102590.09;;;12.42
69704;BMP280;56967;43.538;-5.646;2023-02-28T11:06:33;102584.00;;;12.41
69704;BMP280;56967;43.538;-5.646;2023-02-28T11:09:03;102593.66;;;12.34
69704;BMP280;56967;43.538;-5.646;2023-02-28T11:11:31;102598.00;;;12.64
69704;BMP280;56967;43.538;-5.646;2023-02-28T11:14:06;102597.44;;;13.06
69704;BMP280;56967;43.538;-5.646;2023-02-28T11:16:42;102591.03;;;13.15
69704;BMP280;56967;43.538;-5.646;2023-02-28T11:19:20;102598.28;;;12.69
69704;BMP280;56967;43.538;-5.646;2023-02-28T11:21:53;102594.19;;;12.30
69704;BMP280;56967;43.538;-5.646;2023-02-28T11:24:30;102592.63;;;12.58
69704;BMP280;56967;43.538;-5.646;2023-02-28T11:26:57;102599.84;;;11.96
69704;BMP280;56967;43.538;-5.646;2023-02-28T11:29:32;102588.56;;;11.79
69704;BMP280;56967;43.538;-5.646;2023-02-28T11:34:35;102594.59;;;11.49
69704;BMP280;56967;43.538;-5.646;2023-02-28T11:37:02;102592.13;;;11.55
69704;BMP280;56967;43.538;-5.646;2023-02-28T11:39:32;102592.25;;;11.70
69704;BMP280;56967;43.538;-5.646;2023-02-28T11:44:43;102572.03;;;11.93
69704;BMP280;56967;43.538;-5.646;2023-02-28T11:53:35;102576.22;;;11.72
69704;BMP280;56967;43.538;-5.646;2023-02-28T11:56:12;102577.94;;;11.64
69704;BMP280;56967;43.538;-5.646;2023-02-28T12:02:00;102576.88;;;11.43
69704;BMP280;56967;43.538;-5.646;2023-02-28T12:07:25;102562.41;;;11.47
69704;BMP280;56967;43.538;-5.646;2023-02-28T12:21:04;102554.41;;;12.39
69704;BMP280;56967;43.538;-5.646;2023-02-28T12:26:05;102557.63;;;12.41
69704;BMP280;56967;43.538;-5.646;2023-02-28T12:28:39;102562.44;;;12.60
69704;BMP280;56967;43.538;-5.646;2023-02-28T12:31:29;102554.41;;;12.39
69704;BMP280;56967;43.538;-5.646;2023-02-28T12:34:06;102548.78;;;12.57
69704;BMP280;56967;43.538;-5.646;2023-02-28T12:36:35;102545.78;;;12.60
69704;BMP280;56967;43.538;-5.646;2023-02-28T12:41:41;102546.06;;;12.65
69704;BMP280;56967;43.538;-5.646;2023-02-28T12:44:35;102529.56;;;12.34
69704;BMP280;56967;43.538;-5.646;2023-02-28T12:47:04;102525.97;;;12.78
69704;BMP280;56967;43.538;-5.646;2023-02-28T12:49:41;102525.09;;;12.49
69704;BMP280;56967;43.538;-5.646;2023-02-28T12:52:11;102523.34;;;12.27
69704;BMP280;56967;43.538;-5.646;2023-02-28T12:54:50;102512.44;;;12.30
69704;BMP280;56967;43.538;-5.646;2023-02-28T12:57:40;102516.91;;;12.44
69704;BMP280;56967;43.538;-5.646;2023-02-28T13:00:21;102514.56;;;12.34
69704;BMP280;56967;43.538;-5.646;2023-02-28T13:11:32;102503.19;;;12.48
69704;BMP280;56967;43.538;-5.646;2023-02-28T13:14:02;102505.63;;;12.50
69704;BMP280;56967;43.538;-5.646;2023-02-28T13:19:17;102493.31;;;12.94
69704;BMP280;56967;43.538;-5.646;2023-02-28T13:21:44;102503.84;;;12.65
69704;BMP280;56967;43.538;-5.646;2023-02-28T13:24:10;102499.59;;;12.41
69704;BMP280;56967;43.538;-5.646;2023-02-28T13:29:37;102501.75;;;12.23
69704;BMP280;56967;43.538;-5.646;2023-02-28T13:32:18;102492.94;;;12.68
69704;BMP280;56967;43.538;-5.646;2023-02-28T13:39:51;102479.84;;;13.25
69704;BMP280;56967;43.538;-5.646;2023-02-28T13:50:24;102481.16;;;13.00
69704;BMP280;56967;43.538;-5.646;2023-02-28T13:56:07;102475.44;;;13.32
69704;BMP280;56967;43.538;-5.646;2023-02-28T13:58:39;102477.72;;;13.35
69704;BMP280;56967;43.538;-5.646;2023-02-28T14:01:23;102475.53;;;13.03
69704;BMP280;56967;43.538;-5.646;2023-02-28T14:06:54;102470.44;;;13.22
69704;BMP280;56967;43.538;-5.646;2023-02-28T14:09:35;102464.84;;;13.47
69704;BMP280;56967;43.538;-5.646;2023-02-28T14:17:54;102457.88;;;12.45
69704;BMP280;56967;43.538;-5.646;2023-02-28T14:20:21;102462.34;;;12.59
69704;BMP280;56967;43.538;-5.646;2023-02-28T14:23:14;102453.16;;;12.69
69704;BMP280;56967;43.538;-5.646;2023-02-28T14:34:30;102467.06;;;12.78
69704;BMP280;56967;43.538;-5.646;2023-02-28T14:37:00;102468.34;;;12.82
69704;BMP280;56967;43.538;-5.646;2023-02-28T14:39:27;102464.28;;;12.65
69704;BMP280;56967;43.538;-5.646;2023-02-28T14:41:56;102457.81;;;13.18
69704;BMP280;56967;43.538;-5.646;2023-02-28T14:44:27;102456.41;;;12.86
69704;BMP280;56967;43.538;-5.646;2023-02-28T14:46:55;102464.91;;;12.52
69704;BMP280;56967;43.538;-5.646;2023-02-28T14:49:27;102459.16;;;12.78
69704;BMP280;56967;43.538;-5.646;2023-02-28T14:54:43;102463.16;;;12.59
69704;BMP280;56967;43.538;-5.646;2023-02-28T14:57:50;102451.72;;;12.67
69704;BMP280;56967;43.538;-5.646;2023-02-28T15:02:48;102453.63;;;12.44
69704;BMP280;56967;43.538;-5.646;2023-02-28T15:07:42;102452.22;;;12.77
69704;BMP280;56967;43.538;-5.646;2023-02-28T15:10:09;102451.25;;;12.78
69704;BMP280;56967;43.538;-5.646;2023-02-28T15:12:35;102445.69;;;12.73
69704;BMP280;56967;43.538;-5.646;2023-02-28T15:15:02;102449.63;;;12.33
69704;BMP280;56967;43.538;-5.646;2023-02-28T15:17:28;102443.88;;;12.30
69704;BMP280;56967;43.538;-5.646;2023-02-28T15:19:54;102446.84;;;12.41
69704;BMP280;56967;43.538;-5.646;2023-02-28T15:22:28;102441.50;;;12.64
69704;BMP280;56967;43.538;-5.646;2023-02-28T15:24:56;102432.44;;;12.81
69704;BMP280;56967;43.538;-5.646;2023-02-28T15:27:28;102447.34;;;12.74
69704;BMP280;56967;43.538;-5.646;2023-02-28T15:29:59;102435.50;;;12.84
69704;BMP280;56967;43.538;-5.646;2023-02-28T15:32:39;102439.59;;;12.87
69704;BMP280;56967;43.538;-5.646;2023-02-28T15:37:58;102425.50;;;13.16
69704;BMP280;56967;43.538;-5.646;2023-02-28T15:40:31;102428.50;;;12.62
69704;BMP280;56967;43.538;-5.646;2023-02-28T15:43:06;102417.88;;;12.70
69704;BMP280;56967;43.538;-5.646;2023-02-28T15:45:38;102421.41;;;12.63
69704;BMP280;56967;43.538;-5.646;2023-02-28T15:50:42;102421.50;;;12.69
69704;BMP280;56967;43.538;-5.646;2023-02-28T15:53:22;102420.50;;;12.70
69704;BMP280;56967;43.538;-5.646;2023-02-28T15:55:53;102414.50;;;12.76
69704;BMP280;56967;43.538;-5.646;2023-02-28T15:58:21;102416.34;;;12.61
69704;BMP280;56967;43.538;-5.646;2023-02-28T16:01:00;102416.06;;;12.71
69704;BMP280;56967;43.538;-5.646;2023-02-28T16:03:32;102416.75;;;12.36
69704;BMP280;56967;43.538;-5.646;2023-02-28T16:08:47;102424.69;;;12.21
69704;BMP280;56967;43.538;-5.646;2023-02-28T16:11:14;102414.13;;;12.50
69704;BMP280;56967;43.538;-5.646;2023-02-28T16:13:39;102428.88;;;12.30
69704;BMP280;56967;43.538;-5.646;2023-02-28T16:16:05;102435.31;;;12.42
69704;BMP280;56967;43.538;-5.646;2023-02-28T16:18:31;102422.84;;;12.36
69704;BMP280;56967;43.538;-5.646;2023-02-28T16:20:56;102423.97;;;12.12